Time,TemperatureF,DewpointF,PressureIn,WindDirection,WindDirectionDegrees,WindSpeedMPH,WindSpeedGustMPH,Humidity,HourlyPrecipIn,Conditions,Clouds,dailyrainin,SoftwareType,DateUTC
2013-08-05 00:02:00,78.0,-99.9,-100.00,ESE,122,5.0,7.0,-999,0.00,,,-99.99,,2013-08-05 05:02:00,
2013-08-05 00:12:00,78.0,-99.9,-100.00,SE,136,5.0,7.0,-999,0.00,,,-99.99,,2013-08-05 05:12:00,
2013-08-05 00:22:00,78.0,-99.9,-100.00,SE,139,5.0,7.0,-999,0.00,,,-99.99,,2013-08-05 05:22:00,
2013-08-05 00:32:00,78.0,-99.9,-100.00,ESE,118,6.0,8.0,-999,0.00,,,-99.99,,2013-08-05 05:32:00,
2013-08-05 00:43:00,78.0,-99.9,-100.00,SE,146,6.0,8.0,-999,0.00,,,-99.99,,2013-08-05 05:43:00,
2013-08-05 00:53:00,78.0,-99.9,-100.00,SE,142,6.0,10.0,-999,0.00,,,-99.99,,2013-08-05 05:53:00,
2013-08-05 01:02:00,78.0,-99.9,-100.00,SE,124,7.0,10.0,-999,0.00,,,-99.99,,2013-08-05 06:02:00,
2013-08-05 01:12:00,78.0,-99.9,-100.00,SE,132,7.0,10.0,-999,0.00,,,-99.99,,2013-08-05 06:12:00,
2013-08-05 01:22:00,78.0,-99.9,-100.00,SSE,150,8.0,10.0,-999,0.00,,,-99.99,,2013-08-05 06:22:00,
2013-08-05 01:32:00,78.0,-99.9,-100.00,SSE,158,8.0,11.0,-999,0.00,,,-99.99,,2013-08-05 06:32:00,
2013-08-05 01:43:00,77.0,-99.9,-100.00,SE,142,7.0,10.0,-999,0.00,,,-99.99,,2013-08-05 06:43:00,
2013-08-05 01:52:00,77.0,-99.9,-100.00,SE,138,7.0,10.0,-999,0.00,,,-99.99,,2013-08-05 06:52:00,
2013-08-05 02:02:00,78.0,-99.9,-100.00,SE,138,7.0,10.0,-999,0.00,,,-99.99,,2013-08-05 07:02:00,
2013-08-05 02:12:00,77.0,-99.9,-100.00,ESE,115,8.0,12.0,-999,0.00,,,-99.99,,2013-08-05 07:12:00,
2013-08-05 02:22:00,77.0,-99.9,-100.00,SSE,148,7.0,11.0,-999,0.00,,,-99.99,,2013-08-05 07:22:00,
2013-08-05 02:33:00,77.0,-99.9,-100.00,SE,131,8.0,12.0,-999,0.00,,,-99.99,,2013-08-05 07:33:00,
2013-08-05 02:43:00,77.0,-99.9,-100.00,SE,143,6.0,10.0,-999,0.00,,,-99.99,,2013-08-05 07:43:00,
2013-08-05 02:53:00,77.0,-99.9,-100.00,SE,127,7.0,9.0,-999,0.00,,,-99.99,,2013-08-05 07:53:00,
2013-08-05 03:02:00,77.0,-99.9,-100.00,SE,145,7.0,10.0,-999,0.00,,,-99.99,,2013-08-05 08:02:00,
2013-08-05 03:12:00,77.0,-99.9,-100.00,SE,135,5.0,8.0,-999,0.00,,,-99.99,,2013-08-05 08:12:00,
2013-08-05 03:22:00,77.0,-99.9,-100.00,ESE,120,5.0,6.0,-999,0.00,,,-99.99,,2013-08-05 08:22:00,
2013-08-05 03:34:00,77.0,-99.9,-100.00,SE,132,5.0,7.0,-999,0.00,,,-99.99,,2013-08-05 08:34:00,
2013-08-05 03:53:00,77.0,-99.9,-100.00,SE,136,5.0,7.0,-999,0.00,,,-99.99,,2013-08-05 08:53:00,
2013-08-05 04:10:00,77.0,-99.9,-100.00,SE,142,4.0,8.0,-999,0.00,,,-99.99,,2013-08-05 09:10:00,
2013-08-05 04:20:00,77.0,-99.9,-100.00,SE,131,4.0,6.0,-999,0.00,,,-99.99,,2013-08-05 09:20:00,
2013-08-05 04:29:00,76.0,-99.9,-100.00,SSE,152,5.0,7.0,-999,0.00,,,-99.99,,2013-08-05 09:29:00,
2013-08-05 04:44:00,76.0,-99.9,-100.00,SSE,149,4.0,6.0,-999,0.00,,,-99.99,,2013-08-05 09:44:00,
2013-08-05 04:50:00,76.0,-99.9,-100.00,ESE,115,4.0,6.0,-999,0.00,,,-99.99,,2013-08-05 09:50:00,
2013-08-05 05:13:00,76.0,-99.9,-100.00,SE,129,4.0,7.0,-999,0.00,,,-99.99,,2013-08-05 10:13:00,
2013-08-05 05:28:00,76.0,-99.9,-100.00,SSE,153,6.0,9.0,-999,0.00,,,-99.99,,2013-08-05 10:28:00,
2013-08-05 05:50:00,76.0,-99.9,-100.00,SSE,160,3.0,7.0,-999,0.00,,,-99.99,,2013-08-05 10:50:00,
2013-08-05 06:12:00,75.0,-99.9,-100.00,SE,136,4.0,6.0,-999,0.00,,,-99.99,,2013-08-05 11:12:00,
2013-08-05 06:31:00,75.0,-99.9,-100.00,SE,146,5.0,9.0,-999,0.00,,,-99.99,,2013-08-05 11:31:00,
2013-08-05 06:38:00,75.0,-99.9,-100.00,SSE,159,3.0,5.0,-999,0.00,,,-99.99,,2013-08-05 11:38:00,
2013-08-05 07:00:00,76.0,-99.9,-100.00,SE,135,2.0,4.0,-999,0.00,,,-99.99,,2013-08-05 12:00:00,
2013-08-05 07:10:00,75.0,-99.9,-100.00,ESE,115,3.0,6.0,-999,0.00,,,-99.99,,2013-08-05 12:10:00,
2013-08-05 07:17:00,75.0,-99.9,-100.00,SE,142,3.0,5.0,-999,0.00,,,-99.99,,2013-08-05 12:17:00,
2013-08-05 07:28:00,75.0,-99.9,-100.00,SE,143,3.0,5.0,-999,0.00,,,-99.99,,2013-08-05 12:28:00,
2013-08-05 07:34:00,75.0,-99.9,-100.00,SSE,149,2.0,4.0,-999,0.00,,,-99.99,,2013-08-05 12:34:00,
2013-08-05 07:54:00,75.0,-99.9,-100.00,SE,139,2.0,3.0,-999,0.00,,,-99.99,,2013-08-05 12:54:00,
2013-08-05 08:02:00,76.0,-99.9,-100.00,SE,138,4.0,5.0,-999,0.00,,,-99.99,,2013-08-05 13:02:00,
2013-08-05 08:14:00,77.0,-99.9,-100.00,SE,135,4.0,6.0,-999,0.00,,,-99.99,,2013-08-05 13:14:00,
2013-08-05 08:30:00,77.0,-99.9,-100.00,SE,134,4.0,6.0,-999,0.00,,,-99.99,,2013-08-05 13:30:00,
2013-08-05 08:41:00,78.0,-99.9,-100.00,SE,124,5.0,6.0,-999,0.00,,,-99.99,,2013-08-05 13:41:00,
2013-08-05 08:54:00,79.0,-99.9,-100.00,SE,135,4.0,7.0,-999,0.00,,,-99.99,,2013-08-05 13:54:00,
2013-08-05 09:07:00,81.0,-99.9,-100.00,SE,143,6.0,7.0,-999,0.00,,,-99.99,,2013-08-05 14:07:00,
2013-08-05 09:17:00,81.0,-99.9,-100.00,SE,131,6.0,9.0,-999,0.00,,,-99.99,,2013-08-05 14:17:00,
2013-08-05 09:30:00,83.0,-99.9,-100.00,SE,135,5.0,8.0,-999,0.00,,,-99.99,,2013-08-05 14:30:00,
2013-08-05 09:43:00,83.0,-99.9,-100.00,SSE,165,6.0,8.0,-999,0.00,,,-99.99,,2013-08-05 14:43:00,
2013-08-05 10:08:00,85.0,-99.9,-100.00,SSW,194,8.0,12.0,-999,0.00,,,-99.99,,2013-08-05 15:08:00,
2013-08-05 10:18:00,85.0,-99.9,-100.00,SE,143,8.0,13.0,-999,0.00,,,-99.99,,2013-08-05 15:18:00,
2013-08-05 10:25:00,85.0,-99.9,-100.00,SSW,194,8.0,11.0,-999,0.00,,,-99.99,,2013-08-05 15:25:00,
2013-08-05 10:41:00,86.0,-99.9,-100.00,SSE,167,8.0,11.0,-999,0.00,,,-99.99,,2013-08-05 15:41:00,
2013-08-05 10:52:00,87.0,-99.9,-100.00,SE,138,7.0,10.0,-999,0.00,,,-99.99,,2013-08-05 15:52:00,
2013-08-05 11:00:00,88.0,-99.9,-100.00,SSE,150,6.0,9.0,-999,0.00,,,-99.99,,2013-08-05 16:00:00,
2013-08-05 11:13:00,89.0,-99.9,-100.00,South,181,8.0,10.0,-999,0.00,,,-99.99,,2013-08-05 16:13:00,
2013-08-05 11:45:00,90.0,-99.9,-100.00,South,174,8.0,11.0,-999,0.00,,,-99.99,,2013-08-05 16:45:00,
2013-08-05 12:00:00,92.0,-99.9,-100.00,SSE,162,7.0,11.0,-999,0.00,,,-99.99,,2013-08-05 17:00:00,
2013-08-05 12:10:00,93.0,-99.9,-100.00,SSE,162,8.0,14.0,-999,0.00,,,-99.99,,2013-08-05 17:10:00,
2013-08-05 12:17:00,92.0,-99.9,-100.00,South,169,8.0,11.0,-999,0.00,,,-99.99,,2013-08-05 17:17:00,
2013-08-05 12:22:00,93.0,-99.9,-100.00,South,176,8.0,12.0,-999,0.00,,,-99.99,,2013-08-05 17:22:00,
2013-08-05 12:39:00,93.0,-99.9,-100.00,South,174,8.0,13.0,-999,0.00,,,-99.99,,2013-08-05 17:39:00,
2013-08-05 12:50:00,93.0,-99.9,-100.00,SSE,149,8.0,12.0,-999,0.00,,,-99.99,,2013-08-05 17:50:00,
2013-08-05 13:08:00,96.0,-99.9,-100.00,SSE,163,6.0,9.0,-999,0.00,,,-99.99,,2013-08-05 18:08:00,
2013-08-05 13:14:00,96.0,-99.9,-100.00,South,186,7.0,11.0,-999,0.00,,,-99.99,,2013-08-05 18:14:00,
2013-08-05 13:27:00,95.0,-99.9,-100.00,South,188,8.0,12.0,-999,0.00,,,-99.99,,2013-08-05 18:27:00,
2013-08-05 13:45:00,97.0,-99.9,-100.00,SSW,194,7.0,10.0,-999,0.00,,,-99.99,,2013-08-05 18:45:00,
2013-08-05 14:39:00,99.0,-99.9,-100.00,SSW,200,5.0,10.0,-999,0.00,,,-99.99,,2013-08-05 19:39:00,
2013-08-05 14:54:00,100.0,-99.9,-100.00,SSW,205,6.0,11.0,-999,0.00,,,-99.99,,2013-08-05 19:54:00,
2013-08-05 14:59:00,98.0,-99.9,-100.00,SSW,195,6.0,10.0,-999,0.00,,,-99.99,,2013-08-05 19:59:00,
2013-08-05 15:09:00,101.0,-99.9,-100.00,South,176,4.0,9.0,-999,0.00,,,-99.99,,2013-08-05 20:09:00,
2013-08-05 15:30:00,101.0,-99.9,-100.00,SSE,153,4.0,9.0,-999,0.00,,,-99.99,,2013-08-05 20:30:00,
2013-08-05 15:48:00,99.0,-99.9,-100.00,SSW,205,6.0,10.0,-999,0.00,,,-99.99,,2013-08-05 20:48:00,
2013-08-05 16:12:00,99.0,-99.9,-100.00,SSE,148,6.0,9.0,-999,0.00,,,-99.99,,2013-08-05 21:12:00,
2013-08-05 16:20:00,101.0,-99.9,-100.00,SSW,197,6.0,9.0,-999,0.00,,,-99.99,,2013-08-05 21:20:00,
2013-08-05 16:28:00,101.0,-99.9,-100.00,SSW,201,5.0,9.0,-999,0.00,,,-99.99,,2013-08-05 21:28:00,
2013-08-05 16:34:00,100.0,-99.9,-100.00,South,176,6.0,9.0,-999,0.00,,,-99.99,,2013-08-05 21:34:00,
2013-08-05 17:28:00,99.0,-99.9,-100.00,SSW,201,6.0,9.0,-999,0.00,,,-99.99,,2013-08-05 22:28:00,
2013-08-05 17:38:00,99.0,-99.9,-100.00,South,174,6.0,9.0,-999,0.00,,,-99.99,,2013-08-05 22:38:00,
2013-08-05 17:45:00,99.0,-99.9,-100.00,SSE,155,7.0,10.0,-999,0.00,,,-99.99,,2013-08-05 22:45:00,
2013-08-05 17:54:00,100.0,-99.9,-100.00,SE,138,7.0,11.0,-999,0.00,,,-99.99,,2013-08-05 22:54:00,
2013-08-05 18:29:00,99.0,-99.9,-100.00,SSW,194,5.0,9.0,-999,0.00,,,-99.99,,2013-08-05 23:29:00,
2013-08-05 18:46:00,99.0,-99.9,-100.00,South,186,4.0,7.0,-999,0.00,,,-99.99,,2013-08-05 23:46:00,
2013-08-05 19:02:00,99.0,-99.9,-100.00,South,183,4.0,7.0,-999,0.00,,,-99.99,,2013-08-06 00:02:00,
2013-08-05 19:24:00,98.0,-99.9,-100.00,South,177,3.0,7.0,-999,0.00,,,-99.99,,2013-08-06 00:24:00,
2013-08-05 19:37:00,95.0,-99.9,-100.00,SE,146,2.0,4.0,-999,0.00,,,-99.99,,2013-08-06 00:37:00,
2013-08-05 19:57:00,95.0,-99.9,-100.00,SE,145,0.0,2.0,-999,0.00,,,-99.99,,2013-08-06 00:57:00,
2013-08-05 20:28:00,88.0,-99.9,-100.00,SSE,155,4.0,4.0,-999,0.00,,,-99.99,,2013-08-06 01:28:00,
2013-08-05 20:44:00,88.0,-99.9,-100.00,SSE,159,1.0,2.0,-999,0.00,,,-99.99,,2013-08-06 01:44:00,
2013-08-05 20:54:00,87.0,-99.9,-100.00,SSE,153,3.0,3.0,-999,0.00,,,-99.99,,2013-08-06 01:54:00,
2013-08-05 21:04:00,86.0,-99.9,-100.00,SSE,158,2.0,3.0,-999,0.00,,,-99.99,,2013-08-06 02:04:00,
2013-08-05 21:27:00,86.0,-99.9,-100.00,SSE,152,2.0,3.0,-999,0.00,,,-99.99,,2013-08-06 02:27:00,
2013-08-05 21:33:00,86.0,-99.9,-100.00,SE,134,3.0,5.0,-999,0.00,,,-99.99,,2013-08-06 02:33:00,
2013-08-05 21:51:00,86.0,-99.9,-100.00,SSE,152,4.0,5.0,-999,0.00,,,-99.99,,2013-08-06 02:51:00,
2013-08-05 22:27:00,83.0,-99.9,-100.00,South,181,3.0,5.0,-999,0.00,,,-99.99,,2013-08-06 03:27:00,
2013-08-05 22:35:00,83.0,-99.9,-100.00,North,0,0.0,0.0,-999,0.00,,,-99.99,,2013-08-06 03:35:00,
2013-08-05 22:46:00,82.0,-99.9,-100.00,North,0,0.0,0.0,-999,0.00,,,-99.99,,2013-08-06 03:46:00,
2013-08-05 22:53:00,82.0,-99.9,-100.00,North,0,0.0,0.0,-999,0.00,,,-99.99,,2013-08-06 03:53:00,
2013-08-05 23:22:00,83.0,-99.9,-100.00,SSE,159,4.0,5.0,-999,0.00,,,-99.99,,2013-08-06 04:22:00,
2013-08-05 23:33:00,83.0,-99.9,-100.00,SE,134,4.0,5.0,-999,0.00,,,-99.99,,2013-08-06 04:33:00,
2013-08-05 23:44:00,83.0,-99.9,-100.00,SSE,153,3.0,4.0,-999,0.00,,,-99.99,,2013-08-06 04:44:00,
2013-08-05 23:54:00,83.0,-99.9,-100.00,SE,145,4.0,6.0,-999,0.00,,,-99.99,,2013-08-06 04:54:00,